createdAt,value
2022-09-20T00:05:37.933Z,99552.69
2022-09-20T00:11:39.849Z,99548.84
2022-09-20T00:17:41.759Z,99543.81
2022-09-20T00:23:44.595Z,99545.16
2022-09-20T00:29:46.822Z,99544.53
2022-09-20T00:35:49.227Z,99544.44
2022-09-20T00:41:53.712Z,99553.38
2022-09-20T00:48:04.649Z,99556.84
2022-09-20T00:54:10.020Z,99554.69
2022-09-20T01:00:13.904Z,99561.78
2022-09-20T01:06:16.971Z,99548.03
2022-09-20T01:12:24.393Z,99549.63
2022-09-20T01:18:28.315Z,99557.88
2022-09-20T01:24:33.028Z,99572.25
2022-09-20T01:31:24.923Z,99556.41
2022-09-20T01:37:42.898Z,99561.91
2022-09-20T01:44:21.053Z,99568.78
2022-09-20T01:57:12.912Z,99570.50
2022-09-20T02:03:39.541Z,99567.25
2022-09-20T02:16:41.587Z,99567.06
2022-09-20T02:23:05.159Z,99569.69
2022-09-20T02:29:45.179Z,99565.81
2022-09-20T02:36:14.562Z,99569.16
2022-09-20T02:42:40.990Z,99577.75
2022-09-20T02:49:31.348Z,99582.63
2022-09-20T02:56:29.113Z,99580.69
2022-09-20T03:02:59.205Z,99583.75
2022-09-20T03:09:28.761Z,99585.59
2022-09-20T03:15:52.284Z,99586.53
2022-09-20T03:22:34.912Z,99585.16
2022-09-20T03:29:08.723Z,99589.19
2022-09-20T03:35:33.160Z,99591.19
2022-09-20T03:41:53.933Z,99582.31
2022-09-20T03:48:23.085Z,99590.50
2022-09-20T03:55:14.006Z,99590.84
2022-09-20T04:01:45.308Z,99589.16
2022-09-20T04:08:14.111Z,99592.53
2022-09-20T04:15:00.491Z,99596.78
2022-09-20T04:21:47.060Z,99598.81
2022-09-20T04:28:06.837Z,99602.59
2022-09-20T04:34:50.492Z,99605.94
2022-09-20T04:41:16.434Z,99611.31
2022-09-20T04:47:25.066Z,99614.50
2022-09-20T05:00:27.311Z,99635.00
2022-09-20T05:07:09.981Z,99643.59
2022-09-20T05:13:30.193Z,99647.75
2022-09-20T05:20:05.199Z,99642.59
2022-09-20T05:26:51.213Z,99646.16
2022-09-20T05:33:37.429Z,99645.16
2022-09-20T05:40:24.567Z,99652.41
2022-09-20T05:46:35.108Z,99656.63
2022-09-20T05:52:51.927Z,99663.16
2022-09-20T05:59:31.152Z,99665.25
2022-09-20T06:06:16.525Z,99670.25
2022-09-20T06:13:03.946Z,99671.78
2022-09-20T06:19:19.446Z,99684.53
2022-09-20T06:25:42.902Z,99690.72
2022-09-20T06:31:44.803Z,99689.47
2022-09-20T06:38:31.212Z,99686.13
2022-09-20T06:44:33.487Z,99695.00
2022-09-20T06:50:38.895Z,99693.81
2022-09-20T06:56:40.942Z,99697.78
2022-09-20T07:02:43.635Z,99710.91
2022-09-20T07:08:46.894Z,99707.47
2022-09-20T07:14:50.694Z,99718.72
2022-09-20T07:20:52.558Z,99723.38
2022-09-20T07:26:57.357Z,99726.63
2022-09-20T07:33:00.683Z,99733.19
2022-09-20T07:39:02.982Z,99746.28
2022-09-20T07:45:05.719Z,99753.47
2022-09-20T07:51:11.318Z,99750.56
2022-09-20T07:57:13.425Z,99761.66
2022-09-20T08:03:15.309Z,99763.75
2022-09-20T08:09:17.322Z,99767.84
2022-09-20T08:15:19.286Z,99776.63
2022-09-20T08:21:21.329Z,99783.06
2022-09-20T08:27:23.267Z,99782.78
2022-09-20T08:33:25.205Z,99794.97
2022-09-20T08:45:49.225Z,99794.44
2022-09-20T08:51:51.930Z,99800.22
2022-09-20T09:05:35.180Z,99814.84
2022-09-20T09:11:45.776Z,99804.13
2022-09-20T09:17:48.066Z,99811.72
2022-09-20T09:24:01.259Z,99808.06
2022-09-20T09:30:23.297Z,99809.13
2022-09-20T09:36:26.908Z,99814.72
2022-09-20T09:42:31.704Z,99816.38
2022-09-20T09:48:34.315Z,99811.34
2022-09-20T09:54:42.190Z,99808.78
2022-09-20T10:01:08.323Z,99800.88
2022-09-20T10:07:39.629Z,99806.19
2022-09-20T10:14:26.496Z,99805.84
2022-09-20T10:20:53.186Z,99795.84
2022-09-20T10:27:19.342Z,99805.88
2022-09-20T10:33:28.072Z,99800.84
2022-09-20T10:39:39.066Z,99805.66
2022-09-20T10:46:32.998Z,99802.94
2022-09-20T10:52:59.754Z,99806.09
2022-09-20T10:59:57.887Z,99803.84
2022-09-20T11:06:48.087Z,99812.78
2022-09-20T11:13:08.632Z,99816.31
2022-09-20T11:19:11.614Z,99821.19
2022-09-20T11:25:48.489Z,99827.00
2022-09-20T11:31:54.779Z,99833.00
2022-09-20T11:38:27.393Z,99823.22
2022-09-20T11:44:29.924Z,99827.53
2022-09-20T11:50:57.311Z,99846.19
2022-09-20T11:57:00.601Z,99839.03
2022-09-20T12:03:08.827Z,99849.25
2022-09-20T12:09:39.191Z,99852.38
2022-09-20T12:15:42.265Z,99853.94
2022-09-20T12:21:59.533Z,99841.59
2022-09-20T12:28:01.542Z,99842.53
2022-09-20T12:34:15.949Z,99833.81
2022-09-20T12:40:19.162Z,99819.00
2022-09-20T12:46:31.549Z,99834.25
2022-09-20T12:52:57.225Z,99819.84
2022-09-20T12:59:05.351Z,99816.66
2022-09-20T13:05:34.095Z,99819.75
2022-09-20T13:12:10.527Z,99812.88
2022-09-20T13:18:15.488Z,99812.28
2022-09-20T13:24:20.645Z,99821.81
2022-09-20T13:36:58.401Z,99826.25
2022-09-20T13:43:24.793Z,99820.00
2022-09-20T13:49:32.247Z,99816.09
2022-09-20T13:55:39.738Z,99826.06
2022-09-20T14:01:53.181Z,99817.59
2022-09-20T14:07:56.693Z,99819.47
2022-09-20T14:14:04.893Z,99820.47
2022-09-20T14:20:07.482Z,99816.19
2022-09-20T14:26:37.829Z,99817.28
2022-09-20T14:32:42.913Z,99819.47
2022-09-20T14:38:47.811Z,99824.66
2022-09-20T14:44:53.214Z,99816.47
2022-09-20T14:51:18.178Z,99818.44
2022-09-20T14:57:22.463Z,99829.03
2022-09-20T15:03:36.726Z,99839.69
2022-09-20T15:09:39.173Z,99849.69
2022-09-20T15:15:46.587Z,99838.34
2022-09-20T15:21:48.709Z,99825.72
2022-09-20T15:27:53.237Z,99834.19
2022-09-20T15:33:55.315Z,99844.38
2022-09-20T15:39:57.751Z,99846.22
2022-09-20T15:46:16.822Z,99851.91
2022-09-20T15:52:25.567Z,99864.84
2022-09-20T15:58:34.903Z,99855.63
2022-09-20T16:04:37.758Z,99856.34
2022-09-20T16:10:39.919Z,99850.56
2022-09-20T16:23:57.598Z,99852.53
2022-09-20T16:30:21.371Z,99864.44
2022-09-20T16:36:27.885Z,99882.38
2022-09-20T16:42:30.720Z,99894.28
2022-09-20T16:49:11.627Z,99894.94
2022-09-20T16:55:57.082Z,99909.09
2022-09-20T17:02:01.954Z,99909.31
2022-09-20T17:08:38.970Z,99898.91
2022-09-20T17:14:40.950Z,99921.66
2022-09-20T17:20:43.966Z,99926.28
2022-09-20T17:26:46.372Z,99934.19
2022-09-20T17:39:45.533Z,99948.59
2022-09-20T17:45:56.355Z,99946.00
2022-09-20T17:51:58.255Z,99949.75
2022-09-20T17:58:00.392Z,99954.19
2022-09-20T18:04:04.112Z,99966.22
2022-09-20T18:10:07.359Z,99981.03
2022-09-20T18:16:12.085Z,99994.53
2022-09-20T18:22:14.108Z,99994.50
2022-09-20T18:28:18.104Z,99995.25
2022-09-20T18:34:26.693Z,100003.25
2022-09-20T18:40:29.762Z,100011.69
2022-09-20T18:46:32.019Z,100012.31
2022-09-20T18:52:38.196Z,100016.19
2022-09-20T18:58:40.465Z,100030.13
2022-09-20T19:05:14.135Z,100031.56
2022-09-20T19:11:39.172Z,100032.59
2022-09-20T19:17:53.623Z,100048.19
2022-09-20T19:24:28.287Z,100055.34
2022-09-20T19:30:30.771Z,100053.78
2022-09-20T19:36:45.588Z,100065.03
2022-09-20T19:43:00.142Z,100078.72
2022-09-20T19:49:20.381Z,100072.59
2022-09-20T20:02:09.132Z,100070.22
2022-09-20T20:15:29.799Z,100095.38
2022-09-20T20:21:55.334Z,100093.00
2022-09-20T20:27:58.827Z,100093.50
2022-09-20T20:34:03.035Z,100106.59
2022-09-20T20:40:07.245Z,100109.47
2022-09-20T20:46:52.143Z,100110.81
2022-09-20T20:52:57.347Z,100109.72
2022-09-20T20:59:02.263Z,100113.28
2022-09-20T21:05:04.804Z,100123.66
2022-09-20T21:11:25.463Z,100128.75
2022-09-20T21:17:27.451Z,100132.13
2022-09-20T21:23:34.918Z,100141.00
2022-09-20T21:29:36.868Z,100140.47
2022-09-20T21:35:38.801Z,100147.69
2022-09-20T21:41:41.078Z,100153.03
2022-09-20T21:47:42.963Z,100153.22
2022-09-20T21:53:45.678Z,100159.41
2022-09-20T21:59:47.622Z,100161.94
2022-09-20T22:05:49.567Z,100157.25
2022-09-20T22:11:51.981Z,100161.09
2022-09-20T22:17:55.465Z,100163.91
2022-09-20T22:24:03.098Z,100158.09
2022-09-20T22:30:05.824Z,100161.75
2022-09-20T22:36:09.673Z,100167.19
2022-09-20T22:42:11.507Z,100158.16
2022-09-20T22:48:13.382Z,100165.00
2022-09-20T22:54:15.582Z,100165.63
2022-09-20T23:00:17.488Z,100171.31
2022-09-20T23:06:22.921Z,100171.94
2022-09-20T23:12:24.776Z,100166.84
2022-09-20T23:18:26.906Z,100174.84
2022-09-20T23:24:28.758Z,100176.13
2022-09-20T23:30:31.621Z,100187.91
2022-09-20T23:36:38.194Z,100182.72
2022-09-20T23:42:40.068Z,100185.19
2022-09-20T23:48:42.970Z,100184.72
2022-09-20T23:54:44.861Z,100188.72
